Time;durP1;ratioP1;P1;durP2;ratioP2;P2;SDS_P1;SDS_P2;PMS_P1;PMS_P2;Temp;Humidity;BMP_temperature;BMP_pressure;BME280_temperature;BME280_humidity;BME280_pressure;Samples;Min_cycle;Max_cycle;Signal;HPM_P1;HPM_P2
2023/08/22 00:00:27;;;;;;;8.13;3.90;;;21.40;99.90;;;;;;5074761;28;20180;-46
2023/08/22 00:02:54;;;;;;;6.35;4.40;;;21.40;99.90;;;;;;5074737;28;20166;-46
2023/08/22 00:05:19;;;;;;;9.35;4.35;;;21.40;99.90;;;;;;5074572;28;20248;-46
2023/08/22 00:07:45;;;;;;;8.07;4.28;;;21.40;99.90;;;;;;5074768;28;20231;-45
2023/08/22 00:10:10;;;;;;;11.15;4.07;;;21.40;99.90;;;;;;5075282;28;20192;-46
2023/08/22 00:12:36;;;;;;;4.90;3.60;;;21.30;99.90;;;;;;5056438;28;20221;-46
2023/08/22 00:15:05;;;;;;;9.32;4.28;;;21.30;99.90;;;;;;5074566;28;20169;-46
2023/08/22 00:17:31;;;;;;;7.40;3.80;;;21.30;99.90;;;;;;5093472;28;20257;-51
2023/08/22 00:19:56;;;;;;;7.95;4.03;;;21.40;99.90;;;;;;5094740;28;20208;-46
2023/08/22 00:22:22;;;;;;;7.45;4.90;;;21.30;99.90;;;;;;5094621;28;20215;-49
2023/08/22 00:24:48;;;;;;;8.52;4.25;;;21.40;99.90;;;;;;5094551;28;20242;-46
2023/08/22 00:27:14;;;;;;;10.35;4.18;;;21.30;99.90;;;;;;5095276;28;20196;-48
2023/08/22 00:29:39;;;;;;;7.00;3.58;;;21.20;99.90;;;;;;5095040;28;20203;-51
2023/08/22 00:32:05;;;;;;;8.93;4.43;;;21.20;99.90;;;;;;5094526;28;20621;-48
2023/08/22 00:34:31;;;;;;;9.32;4.00;;;21.30;99.90;;;;;;5094273;28;20212;-48
2023/08/22 00:36:56;;;;;;;7.85;4.47;;;21.30;99.90;;;;;;5094400;28;20249;-48
2023/08/22 00:39:24;;;;;;;9.13;4.13;;;21.30;99.90;;;;;;5094425;28;20197;-49
2023/08/22 00:41:49;;;;;;;10.25;5.40;;;21.30;99.90;;;;;;5094238;28;20566;-47
2023/08/22 00:44:15;;;;;;;10.82;5.05;;;21.20;99.90;;;;;;5094234;28;20214;-46
2023/08/22 00:46:40;;;;;;;13.38;4.75;;;21.10;99.90;;;;;;5076951;28;20186;-46
2023/08/22 00:49:08;;;;;;;7.95;4.75;;;21.10;99.90;;;;;;5073867;28;20253;-47
2023/08/22 00:51:36;;;;;;;12.95;4.45;;;21.20;99.90;;;;;;5073889;28;20634;-48
2023/08/22 00:54:02;;;;;;;16.38;5.03;;;21.20;99.90;;;;;;5073776;28;20251;-47
2023/08/22 00:56:29;;;;;;;6.88;3.90;;;21.10;99.90;;;;;;5073818;28;20623;-48
2023/08/22 00:58:55;;;;;;;16.50;4.50;;;21.00;99.90;;;;;;5073719;28;20170;-47
2023/08/22 01:01:21;;;;;;;11.68;4.78;;;21.00;99.90;;;;;;5073745;28;20253;-49
2023/08/22 01:03:46;;;;;;;11.60;4.53;;;21.00;99.90;;;;;;5055663;28;20652;-48
2023/08/22 01:06:27;;;;;;;8.27;4.70;;;21.00;99.90;;;;;;5074542;28;20587;-46
2023/08/22 01:09:04;;;;;;;12.65;4.60;;;21.00;99.90;;;;;;5073586;28;20184;-46
2023/08/22 01:11:34;;;;;;;8.80;4.57;;;20.90;99.90;;;;;;5073796;28;20174;-48
2023/08/22 01:14:04;;;;;;;12.95;4.32;;;20.90;99.90;;;;;;5073233;28;20264;-46
2023/08/22 01:16:30;;;;;;;9.07;4.80;;;20.90;99.90;;;;;;5082749;28;20197;-47
2023/08/22 01:18:56;;;;;;;7.95;3.75;;;20.90;99.90;;;;;;5093677;28;20637;-46
2023/08/22 01:21:22;;;;;;;10.52;4.65;;;20.80;99.90;;;;;;5093710;28;20170;-48
2023/08/22 01:23:48;;;;;;;7.38;4.53;;;20.70;99.90;;;;;;5093702;28;20169;-45
2023/08/22 01:26:14;;;;;;;8.82;4.40;;;20.80;99.90;;;;;;5093919;28;20177;-46
2023/08/22 01:28:44;;;;;;;10.25;4.68;;;20.70;99.90;;;;;;5093868;28;20649;-46
2023/08/22 01:31:22;;;;;;;7.55;4.20;;;20.60;99.90;;;;;;5093706;28;20533;-45
2023/08/22 01:33:47;;;;;;;10.10;4.18;;;20.40;99.90;;;;;;5093209;28;20211;-46
2023/08/22 01:36:15;;;;;;;6.93;4.35;;;20.40;99.90;;;;;;5075722;28;20170;-46
2023/08/22 01:38:42;;;;;;;10.48;4.53;;;20.40;99.90;;;;;;5073428;28;20158;-46
2023/08/22 01:41:07;;;;;;;7.68;4.28;;;20.50;99.90;;;;;;5072943;28;20223;-46
2023/08/22 01:43:36;;;;;;;13.15;5.15;;;20.80;99.90;;;;;;5072938;28;20718;-46
2023/08/22 01:46:03;;;;;;;9.75;4.53;;;20.50;99.90;;;;;;5073080;28;20202;-46
2023/08/22 01:48:28;;;;;;;8.23;4.97;;;20.60;99.90;;;;;;5072983;28;20265;-46
2023/08/22 01:50:54;;;;;;;6.97;4.78;;;20.50;99.90;;;;;;5072732;28;20244;-46
2023/08/22 01:53:19;;;;;;;15.07;5.05;;;20.50;99.90;;;;;;5072677;28;20285;-46
2023/08/22 01:55:45;;;;;;;8.07;4.68;;;20.50;99.90;;;;;;5054686;28;20174;-46
2023/08/22 01:58:11;;;;;;;13.35;4.85;;;20.50;99.90;;;;;;5072937;28;20165;-46
2023/08/22 02:00:38;;;;;;;12.77;5.05;;;20.50;99.90;;;;;;5072546;28;20170;-46
2023/08/22 02:03:04;;;;;;;10.77;4.72;;;20.50;99.90;;;;;;5081844;28;20169;-46
2023/08/22 02:05:29;;;;;;;12.07;5.10;;;20.40;99.90;;;;;;5092405;28;20655;-46
2023/08/22 02:07:55;;;;;;;10.73;5.22;;;20.20;99.90;;;;;;5092628;28;20687;-46
2023/08/22 02:10:20;;;;;;;11.27;5.25;;;20.30;99.90;;;;;;5092590;28;20169;-45
2023/08/22 02:12:46;;;;;;;9.60;5.10;;;20.30;99.90;;;;;;5092352;28;20252;-45
2023/08/22 02:15:12;;;;;;;13.10;4.43;;;20.20;99.90;;;;;;5092979;28;20169;-46
2023/08/22 02:17:38;;;;;;;14.95;5.05;;;20.20;99.90;;;;;;5073801;28;20554;-46
2023/08/22 02:20:05;;;;;;;7.38;4.65;;;20.20;99.90;;;;;;5092205;28;20183;-46
2023/08/22 02:22:30;;;;;;;10.70;4.97;;;20.20;99.90;;;;;;5074448;28;20538;-46
2023/08/22 02:24:56;;;;;;;10.27;4.32;;;20.20;99.90;;;;;;5092313;28;20157;-48
2023/08/22 02:27:21;;;;;;;8.25;4.65;;;20.30;99.90;;;;;;5092301;28;20651;-48
2023/08/22 02:29:47;;;;;;;12.00;4.93;;;20.20;99.90;;;;;;5092212;28;20619;-45
2023/08/22 02:32:13;;;;;;;11.43;4.80;;;20.20;99.90;;;;;;5086577;28;20182;-45
2023/08/22 02:34:38;;;;;;;9.65;4.80;;;20.20;99.90;;;;;;5071747;28;20201;-46
2023/08/22 02:37:04;;;;;;;15.98;5.70;;;20.20;99.90;;;;;;5071898;28;20522;-45
2023/08/22 02:39:29;;;;;;;13.43;5.45;;;20.10;99.90;;;;;;5071843;28;20524;-45
2023/08/22 02:41:55;;;;;;;14.05;4.88;;;20.20;99.90;;;;;;5071890;28;20169;-46
2023/08/22 02:44:21;;;;;;;11.40;5.30;;;20.10;99.90;;;;;;5072116;28;20204;-46
2023/08/22 02:46:46;;;;;;;13.18;5.25;;;20.00;99.90;;;;;;5072048;28;20166;-46
2023/08/22 02:49:12;;;;;;;10.35;5.60;;;19.80;99.90;;;;;;5072203;28;20268;-45
2023/08/22 02:51:38;;;;;;;13.65;6.03;;;19.70;99.90;;;;;;5071670;28;20645;-46
2023/08/22 02:54:04;;;;;;;11.43;6.55;;;19.70;99.90;;;;;;5071612;28;20665;-46
2023/08/22 02:56:30;;;;;;;17.65;6.45;;;19.80;99.90;;;;;;5071277;28;20170;-46
2023/08/22 02:58:55;;;;;;;12.20;6.18;;;19.80;99.90;;;;;;5071523;28;20166;-46
2023/08/22 03:01:21;;;;;;;17.90;5.25;;;19.80;99.90;;;;;;5074845;28;20173;-46
2023/08/22 03:03:50;;;;;;;15.32;5.70;;;19.70;99.90;;;;;;5091781;28;20682;-46
2023/08/22 03:06:16;;;;;;;14.20;5.75;;;19.70;99.90;;;;;;5091603;28;20649;-54
2023/08/22 03:08:42;;;;;;;16.10;5.47;;;19.70;99.90;;;;;;5092116;28;20173;-46
2023/08/22 03:11:08;;;;;;;10.88;6.22;;;19.70;99.90;;;;;;5091670;28;20656;-46
2023/08/22 03:13:35;;;;;;;19.42;7.32;;;19.70;99.90;;;;;;5091598;28;20696;-45
2023/08/22 03:16:02;;;;;;;15.85;6.07;;;19.60;99.90;;;;;;5091628;28;20165;-46
2023/08/22 03:18:27;;;;;;;18.88;6.40;;;19.60;99.90;;;;;;5091892;28;20173;-46
2023/08/22 03:20:56;;;;;;;12.13;6.25;;;19.60;99.90;;;;;;5091822;28;20169;-45
2023/08/22 03:23:23;;;;;;;13.50;6.50;;;19.60;99.90;;;;;;5091861;28;20509;-46
2023/08/22 03:25:59;;;;;;;17.05;6.53;;;19.70;99.90;;;;;;5091770;28;20578;-46
2023/08/22 03:28:25;;;;;;;14.52;6.47;;;19.60;99.90;;;;;;5091468;28;20621;-46
2023/08/22 03:31:02;;;;;;;15.27;6.47;;;19.70;99.90;;;;;;5094598;28;20177;-46
2023/08/22 03:33:28;;;;;;;17.10;6.28;;;19.70;99.90;;;;;;5075589;28;20296;-46
2023/08/22 03:35:55;;;;;;;10.52;6.10;;;19.60;99.90;;;;;;5075288;28;20607;-46
2023/08/22 03:38:20;;;;;;;16.92;7.13;;;19.60;99.90;;;;;;5075279;28;20241;-46
2023/08/22 03:40:47;;;;;;;14.45;6.45;;;19.50;99.90;;;;;;5075459;28;20212;-45
2023/08/22 03:43:13;;;;;;;11.52;6.07;;;19.50;99.90;;;;;;5075829;28;20188;-45
2023/08/22 03:45:39;;;;;;;13.80;6.55;;;17.90;99.90;;;;;;5075626;28;20170;-45
2023/08/22 03:48:06;;;;;;;11.57;7.22;;;19.50;99.90;;;;;;5075080;28;20567;-46
2023/08/22 03:50:31;;;;;;;11.48;6.38;;;19.50;99.90;;;;;;5075030;28;20264;-45
2023/08/22 03:52:57;;;;;;;11.15;6.13;;;19.50;99.90;;;;;;5074917;28;20288;-45
2023/08/22 03:55:23;;;;;;;9.30;6.85;;;19.50;99.90;;;;;;5056880;28;20158;-45
2023/08/22 03:57:48;;;;;;;10.65;5.93;;;19.50;99.90;;;;;;5074827;28;20169;-46
2023/08/22 04:00:14;;;;;;;11.65;6.63;;;19.50;99.90;;;;;;5075029;28;20174;-47
2023/08/22 04:02:40;;;;;;;11.45;6.28;;;19.50;99.90;;;;;;5095470;28;20202;-46
2023/08/22 04:05:06;;;;;;;11.10;6.43;;;19.50;99.90;;;;;;5094968;28;20256;-45
2023/08/22 04:07:32;;;;;;;10.68;6.88;;;19.40;99.90;;;;;;5094966;28;20170;-46
2023/08/22 04:09:57;;;;;;;12.90;7.28;;;19.50;99.90;;;;;;5094869;28;20617;-46
2023/08/22 04:12:23;;;;;;;9.57;6.25;;;19.40;99.90;;;;;;5094658;28;20616;-46
2023/08/22 04:14:49;;;;;;;10.50;6.28;;;19.30;99.90;;;;;;5076448;28;20201;-46
2023/08/22 04:17:15;;;;;;;11.00;6.57;;;19.30;99.90;;;;;;5076889;28;20594;-47
2023/08/22 04:19:41;;;;;;;13.63;7.28;;;19.30;99.90;;;;;;5076993;28;20165;-48
2023/08/22 04:22:07;;;;;;;15.25;7.53;;;19.30;99.90;;;;;;5094898;28;20173;-45
2023/08/22 04:24:32;;;;;;;12.68;6.55;;;19.20;99.90;;;;;;5094681;28;20227;-46
2023/08/22 04:26:58;;;;;;;12.27;6.90;;;19.10;99.90;;;;;;5094657;28;20618;-45
2023/08/22 04:29:23;;;;;;;12.30;6.80;;;19.10;99.90;;;;;;5094543;28;20581;-46
2023/08/22 04:31:49;;;;;;;13.95;7.00;;;19.00;99.90;;;;;;5078443;28;20249;-46
2023/08/22 04:34:15;;;;;;;13.82;6.10;;;19.00;99.90;;;;;;5074021;28;20209;-47
2023/08/22 04:36:40;;;;;;;17.80;8.05;;;19.10;99.90;;;;;;5074497;28;20528;-46
2023/08/22 04:39:06;;;;;;;12.10;6.82;;;19.00;99.90;;;;;;5074132;28;20228;-46
2023/08/22 04:41:32;;;;;;;13.30;7.75;;;19.00;99.90;;;;;;5073537;28;20193;-50
2023/08/22 04:43:58;;;;;;;12.55;6.55;;;19.10;99.90;;;;;;5073999;28;20529;-46
2023/08/22 04:46:24;;;;;;;12.50;7.00;;;19.10;99.90;;;;;;5073955;28;20178;-46
2023/08/22 04:48:49;;;;;;;8.48;6.63;;;19.10;99.90;;;;;;5073850;28;20165;-46
2023/08/22 04:51:15;;;;;;;14.55;6.78;;;19.10;99.90;;;;;;5073904;28;20252;-47
2023/08/22 04:53:40;;;;;;;9.73;6.75;;;19.00;99.90;;;;;;5074234;28;20212;-47
2023/08/22 04:56:06;;;;;;;9.70;6.78;;;19.10;99.90;;;;;;5055857;28;20261;-47
2023/08/22 04:58:32;;;;;;;13.18;6.95;;;19.10;99.90;;;;;;5073903;28;20219;-46
2023/08/22 05:00:58;;;;;;;10.25;7.13;;;19.10;99.90;;;;;;5086254;28;20178;-46
2023/08/22 05:03:24;;;;;;;8.70;6.63;;;19.10;99.90;;;;;;5093541;28;20175;-50
2023/08/22 05:05:49;;;;;;;15.48;7.57;;;19.10;99.90;;;;;;5093506;28;20240;-50
2023/08/22 05:08:15;;;;;;;10.60;7.45;;;19.10;99.90;;;;;;5093383;28;20208;-49
2023/08/22 05:10:41;;;;;;;9.80;7.50;;;19.10;99.90;;;;;;5094297;28;20157;-46
2023/08/22 05:13:06;;;;;;;8.65;7.03;;;19.20;99.90;;;;;;5093535;28;20688;-46
2023/08/22 05:15:32;;;;;;;10.45;7.30;;;19.10;99.90;;;;;;5093937;28;20247;-46
2023/08/22 05:17:57;;;;;;;11.88;7.68;;;19.20;99.90;;;;;;5093664;28;20613;-46
2023/08/22 05:20:23;;;;;;;12.32;7.63;;;19.20;99.90;;;;;;5093589;28;20599;-47
2023/08/22 05:22:49;;;;;;;11.38;7.55;;;19.20;99.90;;;;;;5093585;28;20165;-46
2023/08/22 05:25:14;;;;;;;10.63;7.05;;;19.30;99.90;;;;;;5093520;28;20513;-46
2023/08/22 05:27:40;;;;;;;9.88;7.13;;;19.30;99.90;;;;;;5093548;28;20219;-46
2023/08/22 05:30:06;;;;;;;13.95;8.00;;;19.30;99.90;;;;;;5068139;28;20660;-46
2023/08/22 05:32:32;;;;;;;16.05;7.80;;;19.50;99.90;;;;;;5073075;28;20162;-46
2023/08/22 05:34:58;;;;;;;10.85;7.68;;;19.40;99.90;;;;;;5073019;28;20206;-46
2023/08/22 05:37:24;;;;;;;7.47;6.78;;;19.40;99.90;;;;;;5072958;28;20173;-46
2023/08/22 05:39:50;;;;;;;9.63;7.30;;;19.50;99.90;;;;;;5073121;28;20184;-46
2023/08/22 05:42:16;;;;;;;10.25;7.50;;;19.50;99.90;;;;;;5072865;28;20163;-46
2023/08/22 05:44:41;;;;;;;10.32;7.13;;;19.60;99.90;;;;;;5073273;28;20215;-46
2023/08/22 05:47:08;;;;;;;12.95;7.97;;;19.60;99.90;;;;;;5072741;28;20170;-50
2023/08/22 05:49:34;;;;;;;9.65;7.20;;;19.50;99.90;;;;;;5072731;28;20621;-49
2023/08/22 05:52:04;;;;;;;12.60;7.78;;;19.60;99.90;;;;;;5072334;28;20222;-47
2023/08/22 05:54:31;;;;;;;11.85;7.00;;;19.70;99.90;;;;;;5071651;28;20197;-46
2023/08/22 05:56:56;;;;;;;10.50;8.23;;;19.70;99.90;;;;;;5072561;28;20523;-46
2023/08/22 05:59:23;;;;;;;16.75;7.88;;;19.80;99.90;;;;;;5074253;28;20170;-45
2023/08/22 06:01:49;;;;;;;10.27;8.07;;;19.80;99.90;;;;;;5093083;28;20534;-46
2023/08/22 06:04:18;;;;;;;12.60;8.57;;;19.90;99.90;;;;;;5074601;28;20205;-46
2023/08/22 06:06:44;;;;;;;8.70;7.63;;;19.90;99.90;;;;;;5084747;28;20177;-46
2023/08/22 06:09:11;;;;;;;14.43;8.18;;;19.90;99.90;;;;;;5072508;28;20177;-46
2023/08/22 06:11:37;;;;;;;17.25;8.23;;;20.00;99.90;;;;;;5072132;28;20166;-47
2023/08/22 06:14:03;;;;;;;10.55;8.88;;;20.10;99.90;;;;;;5071888;28;20243;-46
2023/08/22 06:16:29;;;;;;;14.27;9.18;;;20.10;99.90;;;;;;5072124;28;20162;-46
2023/08/22 06:18:55;;;;;;;14.65;8.40;;;20.10;99.90;;;;;;5071911;28;20653;-46
2023/08/22 06:21:20;;;;;;;17.58;10.27;;;20.20;99.90;;;;;;5071961;28;20731;-45
2023/08/22 06:23:46;;;;;;;8.73;7.93;;;20.30;99.90;;;;;;5071930;28;20610;-47
2023/08/22 06:26:13;;;;;;;14.57;8.65;;;20.40;99.90;;;;;;5072388;28;20174;-46
2023/08/22 06:28:39;;;;;;;13.13;9.48;;;20.50;99.90;;;;;;5072377;28;20209;-46
2023/08/22 06:31:05;;;;;;;14.00;9.05;;;20.60;99.90;;;;;;5071566;28;20202;-46
2023/08/22 06:33:31;;;;;;;13.70;9.60;;;20.60;99.90;;;;;;5071274;28;20189;-45
2023/08/22 06:35:56;;;;;;;11.73;9.93;;;20.60;99.90;;;;;;5071456;28;20215;-45
2023/08/22 06:38:22;;;;;;;13.70;9.82;;;20.70;99.90;;;;;;5071867;28;20646;-45
2023/08/22 06:40:48;;;;;;;11.52;9.63;;;20.50;99.90;;;;;;5071270;28;20171;-45
2023/08/22 06:43:15;;;;;;;14.48;9.32;;;20.60;99.90;;;;;;5071459;28;20299;-45
2023/08/22 06:45:40;;;;;;;12.02;9.65;;;20.80;99.90;;;;;;5053497;28;20170;-45
2023/08/22 06:48:06;;;;;;;17.40;10.73;;;20.80;99.90;;;;;;5071689;28;20525;-45
2023/08/22 06:50:32;;;;;;;12.45;9.75;;;20.90;99.90;;;;;;5071072;28;20168;-45
2023/08/22 06:52:57;;;;;;;12.10;9.57;;;20.90;99.90;;;;;;5071632;28;20170;-45
2023/08/22 06:55:23;;;;;;;13.02;9.80;;;20.90;99.90;;;;;;5071162;28;20170;-45
2023/08/22 06:57:49;;;;;;;10.50;9.13;;;20.90;99.90;;;;;;5071329;28;20166;-44
2023/08/22 07:00:16;;;;;;;15.75;9.85;;;21.00;99.90;;;;;;5086897;28;20183;-45
2023/08/22 07:02:44;;;;;;;13.52;9.73;;;21.00;99.90;;;;;;5092053;28;20172;-45
2023/08/22 07:05:11;;;;;;;11.20;9.27;;;21.20;99.90;;;;;;5092028;28;20256;-45
2023/08/22 07:07:37;;;;;;;16.50;10.35;;;21.30;99.90;;;;;;5091590;28;20211;-45
2023/08/22 07:10:08;;;;;;;11.38;9.18;;;21.20;99.90;;;;;;5091687;28;20248;-45
2023/08/22 07:12:34;;;;;;;11.57;9.27;;;21.10;99.90;;;;;;5091412;28;20205;-44
2023/08/22 07:15:01;;;;;;;12.10;9.70;;;21.30;99.90;;;;;;5091250;28;20319;-45
2023/08/22 07:17:26;;;;;;;17.25;9.90;;;21.20;99.90;;;;;;5091642;28;20200;-46
2023/08/22 07:19:52;;;;;;;15.55;10.70;;;21.40;99.90;;;;;;5091443;28;20173;-48
2023/08/22 07:22:18;;;;;;;11.75;9.73;;;21.50;99.90;;;;;;5091319;28;20161;-47
2023/08/22 07:24:43;;;;;;;13.02;9.75;;;21.50;99.90;;;;;;5073010;28;20215;-46
2023/08/22 07:27:11;;;;;;;13.65;9.75;;;21.60;99.90;;;;;;5091434;28;20222;-45
2023/08/22 07:29:37;;;;;;;12.10;10.38;;;21.60;99.90;;;;;;5075726;28;20253;-47
2023/08/22 07:32:02;;;;;;;13.82;9.68;;;21.70;99.90;;;;;;5070564;28;20709;-47
2023/08/22 07:34:28;;;;;;;15.40;9.85;;;21.80;99.90;;;;;;5070549;28;20274;-49
2023/08/22 07:36:54;;;;;;;11.30;9.50;;;21.90;99.90;;;;;;5070550;28;20530;-45
2023/08/22 07:39:21;;;;;;;14.73;10.15;;;21.60;99.90;;;;;;5070713;28;20205;-45
2023/08/22 07:41:46;;;;;;;17.30;10.65;;;21.50;99.90;;;;;;5071302;28;20170;-46
2023/08/22 07:44:13;;;;;;;15.07;10.18;;;21.60;99.90;;;;;;5071372;28;20224;-46
2023/08/22 07:46:39;;;;;;;19.17;10.25;;;21.90;99.90;;;;;;5071414;28;20211;-46
2023/08/22 07:49:04;;;;;;;16.52;10.70;;;22.10;99.90;;;;;;5053186;28;20252;-49
2023/08/22 07:51:31;;;;;;;15.52;10.73;;;22.00;99.90;;;;;;5070818;28;20631;-50
2023/08/22 07:53:56;;;;;;;13.20;10.45;;;22.10;99.90;;;;;;5071034;28;20225;-47
2023/08/22 07:56:22;;;;;;;16.10;10.68;;;22.10;99.90;;;;;;5071257;28;20510;-50
2023/08/22 07:58:48;;;;;;;13.48;10.27;;;22.30;99.90;;;;;;5052226;28;20192;-47
2023/08/22 08:01:14;;;;;;;13.45;10.43;;;22.30;99.90;;;;;;5070877;28;20170;-51
2023/08/22 08:03:39;;;;;;;11.48;9.23;;;22.40;99.90;;;;;;5071312;28;20524;-48
2023/08/22 08:06:05;;;;;;;11.63;8.98;;;22.60;99.90;;;;;;5070838;28;20550;-46
2023/08/22 08:08:30;;;;;;;14.80;9.82;;;22.70;99.90;;;;;;5070928;28;20194;-49
2023/08/22 08:10:56;;;;;;;13.80;8.95;;;22.80;99.90;;;;;;5070794;28;20527;-49
2023/08/22 08:13:21;;;;;;;14.48;9.02;;;23.00;99.90;;;;;;5070620;28;20300;-47
2023/08/22 08:15:47;;;;;;;13.35;9.93;;;23.30;99.90;;;;;;5070811;28;20596;-50
2023/08/22 08:18:15;;;;;;;13.05;9.82;;;23.40;99.90;;;;;;5074408;28;20170;-46
2023/08/22 08:20:41;;;;;;;13.35;8.57;;;23.60;99.90;;;;;;5074731;28;20162;-51
2023/08/22 08:23:06;;;;;;;16.95;8.23;;;23.80;99.90;;;;;;5074527;28;20216;-51
2023/08/22 08:25:32;;;;;;;15.35;8.13;;;23.90;99.90;;;;;;5074056;28;20170;-48
2023/08/22 08:27:58;;;;;;;13.13;8.13;;;23.90;99.90;;;;;;5081535;28;20200;-47
2023/08/22 08:30:24;;;;;;;15.52;9.32;;;24.20;99.90;;;;;;5094730;28;20230;-50
2023/08/22 08:32:53;;;;;;;14.65;10.02;;;24.20;99.90;;;;;;5094435;28;20169;-45
2023/08/22 08:35:19;;;;;;;12.00;10.00;;;24.40;99.90;;;;;;5094327;28;20224;-49
2023/08/22 08:37:46;;;;;;;14.18;9.13;;;24.50;99.90;;;;;;5094187;28;20625;-51
2023/08/22 08:40:12;;;;;;;12.57;9.10;;;24.50;99.90;;;;;;5093997;28;20221;-45
2023/08/22 08:42:38;;;;;;;14.13;8.98;;;24.60;99.90;;;;;;5087210;28;20692;-51
2023/08/22 08:45:07;;;;;;;15.57;8.32;;;24.80;99.90;;;;;;5072187;28;20173;-52
2023/08/22 08:47:34;;;;;;;13.93;8.63;;;25.00;99.90;;;;;;5072221;28;20165;-55
2023/08/22 08:50:04;;;;;;;20.60;9.00;;;25.10;99.90;;;;;;5072232;28;20177;-53
2023/08/22 08:52:31;;;;;;;14.43;9.15;;;25.40;99.90;;;;;;5071989;28;20173;-51
2023/08/22 08:54:58;;;;;;;12.43;8.07;;;25.50;99.90;;;;;;5071946;28;20197;-54
2023/08/22 08:57:24;;;;;;;12.35;9.00;;;25.40;99.90;;;;;;5075867;28;20161;-53
2023/08/22 08:59:49;;;;;;;16.38;8.75;;;25.70;99.90;;;;;;5092133;28;20192;-51
2023/08/22 09:02:16;;;;;;;16.45;9.48;;;25.70;99.90;;;;;;5092333;28;20640;-52
2023/08/22 09:04:42;;;;;;;21.98;9.32;;;26.10;99.90;;;;;;5092316;28;20532;-47
2023/08/22 09:07:08;;;;;;;18.58;9.13;;;26.50;99.90;;;;;;5092669;28;20199;-53
2023/08/22 09:09:37;;;;;;;16.52;8.98;;;26.50;99.90;;;;;;5074062;28;20156;-53
2023/08/22 09:12:08;;;;;;;12.65;6.38;;;26.70;99.90;;;;;;5092002;28;20173;-55
2023/08/22 09:14:39;;;;;;;9.68;5.68;;;27.00;99.90;;;;;;5091839;28;20212;-54
2023/08/22 09:17:05;;;;;;;15.73;6.00;;;26.70;99.90;;;;;;5091965;28;20190;-54
2023/08/22 09:19:32;;;;;;;12.52;6.15;;;26.70;99.90;;;;;;5092059;28;20177;-53
2023/08/22 09:22:05;;;;;;;11.52;7.00;;;26.60;99.90;;;;;;5092111;28;20165;-51
2023/08/22 09:24:32;;;;;;;12.60;5.40;;;26.60;99.90;;;;;;5092155;28;20263;-54
2023/08/22 09:27:00;;;;;;;9.88;4.75;;;26.10;99.90;;;;;;5085780;28;20232;-52
2023/08/22 09:29:27;;;;;;;9.13;5.25;;;26.30;99.90;;;;;;5071604;28;20205;-52
2023/08/22 09:31:57;;;;;;;7.95;4.35;;;26.30;99.90;;;;;;5071934;28;20192;-52
2023/08/22 09:34:23;;;;;;;10.60;4.50;;;26.10;99.90;;;;;;5071594;28;20240;-51
2023/08/22 09:36:52;;;;;;;8.38;4.70;;;26.00;99.90;;;;;;5071748;28;20205;-52
2023/08/22 09:39:21;;;;;;;9.45;4.38;;;26.00;99.90;;;;;;5071531;28;20166;-52
2023/08/22 09:41:55;;;;;;;8.27;4.22;;;26.00;99.90;;;;;;5071648;28;20176;-51
2023/08/22 09:44:25;;;;;;;13.20;5.35;;;26.20;99.90;;;;;;5071649;28;20263;-51
2023/08/22 09:46:52;;;;;;;12.13;5.13;;;26.50;99.90;;;;;;5071651;28;20382;-52
2023/08/22 09:49:19;;;;;;;8.95;5.00;;;26.70;99.90;;;;;;5071192;28;20539;-51
2023/08/22 09:51:46;;;;;;;13.82;5.25;;;26.70;99.90;;;;;;5071517;28;20248;-52
2023/08/22 09:54:13;;;;;;;9.52;4.78;;;26.70;99.90;;;;;;5070990;28;20204;-49
2023/08/22 09:56:39;;;;;;;9.40;4.65;;;26.80;99.90;;;;;;5075773;28;20176;-51
2023/08/22 09:59:06;;;;;;;8.82;4.88;;;26.70;99.90;;;;;;5091184;28;20762;-54
2023/08/22 10:01:34;;;;;;;13.15;4.82;;;26.90;99.90;;;;;;5091479;28;21119;-50
2023/08/22 10:04:04;;;;;;;13.63;4.82;;;26.80;99.90;;;;;;5091453;28;20179;-53
2023/08/22 10:06:34;;;;;;;8.32;3.83;;;26.90;99.90;;;;;;5091249;28;20186;-56
2023/08/22 10:09:13;;;;;;;12.85;4.28;;;26.90;99.90;;;;;;5091022;28;20628;-54
2023/08/22 10:11:41;;;;;;;13.93;6.63;;;26.80;99.90;;;;;;5091426;28;20161;-52
2023/08/22 10:14:12;;;;;;;13.43;3.95;;;27.00;99.90;;;;;;5091116;28;20224;-53
2023/08/22 10:16:39;;;;;;;8.65;4.93;;;27.30;99.90;;;;;;5089801;28;20169;-50
2023/08/22 10:19:08;;;;;;;11.57;4.50;;;27.20;99.90;;;;;;5090959;28;20168;-54
2023/08/22 10:22:09;;;;;;;9.68;4.28;;;27.20;99.90;;;;;;5089165;28;20580;-56
2023/08/22 10:24:35;;;;;;;8.38;4.32;;;27.20;99.90;;;;;;5070656;28;20202;-53
2023/08/22 10:27:12;;;;;;;8.50;4.55;;;27.20;99.90;;;;;;5070580;28;20166;-52
2023/08/22 10:29:45;;;;;;;11.20;4.05;;;27.20;99.90;;;;;;5071231;28;20244;-50
2023/08/22 10:32:10;;;;;;;10.63;3.95;;;27.40;99.90;;;;;;5070935;28;20162;-53
2023/08/22 10:34:38;;;;;;;13.68;4.00;;;27.50;99.90;;;;;;5070367;28;20212;-48
2023/08/22 10:37:13;;;;;;;14.07;3.75;;;27.20;99.90;;;;;;5070283;28;20165;-51
2023/08/22 10:39:40;;;;;;;9.38;3.50;;;27.10;99.90;;;;;;5070298;28;20161;-47
2023/08/22 10:42:17;;;;;;;10.48;3.40;;;27.10;99.90;;;;;;5070186;28;20169;-47
2023/08/22 10:44:47;;;;;;;6.97;3.08;;;27.30;99.90;;;;;;5070334;28;20171;-46
2023/08/22 10:47:24;;;;;;;5.93;3.05;;;27.10;99.90;;;;;;5089278;28;20180;-47
2023/08/22 10:49:51;;;;;;;4.13;2.70;;;27.00;99.90;;;;;;5090723;28;20267;-45
2023/08/22 10:52:17;;;;;;;8.30;2.97;;;27.20;99.90;;;;;;5090446;28;20169;-46
2023/08/22 10:55:00;;;;;;;12.38;3.92;;;27.10;99.90;;;;;;5089641;28;20208;-47
2023/08/22 10:57:28;;;;;;;9.77;3.65;;;27.00;99.90;;;;;;5090302;28;20289;-50
2023/08/22 10:59:59;;;;;;;9.77;3.47;;;26.90;99.90;;;;;;5090415;28;20211;-47
2023/08/22 11:02:29;;;;;;;6.10;3.10;;;27.10;99.90;;;;;;5090289;28;20161;-47
2023/08/22 11:05:00;;;;;;;6.00;3.35;;;27.30;99.90;;;;;;5090205;28;20746;-48
2023/08/22 11:07:27;;;;;;;9.73;3.30;;;27.10;99.90;;;;;;5090225;28;20172;-52
2023/08/22 11:09:56;;;;;;;9.70;3.40;;;27.10;99.90;;;;;;5089627;28;20164;-48
2023/08/22 11:12:23;;;;;;;5.88;3.20;;;27.20;99.90;;;;;;5089808;28;20224;-48
2023/08/22 11:14:51;;;;;;;9.82;3.65;;;27.10;99.90;;;;;;5081045;28;20723;-47
2023/08/22 11:17:19;;;;;;;7.05;3.90;;;27.10;99.90;;;;;;5057906;28;20166;-49
2023/08/22 11:19:45;;;;;;;10.18;3.80;;;27.20;99.90;;;;;;5049729;28;20166;-49
2023/08/22 11:22:12;;;;;;;7.63;3.45;;;27.30;99.90;;;;;;5049695;28;20159;-50
2023/08/22 11:24:45;;;;;;;7.20;3.90;;;27.30;99.90;;;;;;5049560;28;20225;-46
2023/08/22 11:27:12;;;;;;;6.30;3.28;;;27.30;99.90;;;;;;5050066;28;20174;-46
2023/08/22 11:29:49;;;;;;;7.25;3.78;;;27.50;99.90;;;;;;5050124;28;20563;-46
2023/08/22 11:32:22;;;;;;;8.20;3.67;;;27.80;99.90;;;;;;5049874;28;20252;-46
2023/08/22 11:34:50;;;;;;;9.30;3.97;;;27.90;99.90;;;;;;5049506;28;20677;-46
2023/08/22 11:37:16;;;;;;;10.50;3.80;;;28.00;99.90;;;;;;5049660;28;20165;-46
2023/08/22 11:39:49;;;;;;;8.88;3.20;;;27.80;99.90;;;;;;5049512;28;20253;-45
2023/08/22 11:42:19;;;;;;;7.78;3.03;;;27.70;99.90;;;;;;5049505;28;20170;-46
2023/08/22 11:45:03;;;;;;;9.73;3.25;;;27.80;99.90;;;;;;5062963;28;20169;-46
2023/08/22 11:47:38;;;;;;;5.50;3.25;;;27.60;99.90;;;;;;5089634;28;20566;-45
2023/08/22 11:50:05;;;;;;;6.45;2.97;;;28.10;99.90;;;;;;5090332;28;20205;-46
2023/08/22 11:52:31;;;;;;;7.03;2.60;;;28.20;99.90;;;;;;5093375;28;20638;-46
2023/08/22 11:55:08;;;;;;;5.78;3.25;;;28.50;99.90;;;;;;5093672;28;20338;-46
2023/08/22 11:57:39;;;;;;;5.32;2.50;;;28.50;99.90;;;;;;5075354;28;20592;-46
2023/08/22 12:00:07;;;;;;;4.75;1.92;;;28.50;99.90;;;;;;5093348;28;20161;-46
2023/08/22 12:02:33;;;;;;;4.38;2.03;;;28.40;99.90;;;;;;5093792;28;20167;-46
2023/08/22 12:04:59;;;;;;;4.95;2.50;;;28.00;99.90;;;;;;5075313;28;20522;-46
2023/08/22 12:07:25;;;;;;;3.13;2.20;;;27.80;99.90;;;;;;5093565;28;20175;-46
2023/08/22 12:10:03;;;;;;;8.10;3.08;;;27.70;99.90;;;;;;5093483;28;20207;-46
2023/08/22 12:12:30;;;;;;;9.20;3.05;;;27.80;99.90;;;;;;5093309;28;20626;-46
2023/08/22 12:14:56;;;;;;;10.05;2.95;;;27.90;99.90;;;;;;5081356;28;20292;-47
2023/08/22 12:17:22;;;;;;;6.10;3.22;;;27.80;99.90;;;;;;5072941;28;20336;-46
2023/08/22 12:19:47;;;;;;;7.50;3.25;;;27.70;99.90;;;;;;5072692;28;20248;-46
2023/08/22 12:22:13;;;;;;;6.22;3.58;;;27.90;99.90;;;;;;5072753;28;20178;-45
2023/08/22 12:24:38;;;;;;;9.85;4.25;;;28.20;99.90;;;;;;5073240;28;20178;-46
2023/08/22 12:27:04;;;;;;;9.98;5.10;;;27.70;99.90;;;;;;5072761;28;20166;-47
2023/08/22 12:29:30;;;;;;;12.10;4.40;;;27.80;99.90;;;;;;5073080;28;20162;-46
2023/08/22 12:31:55;;;;;;;7.75;4.00;;;27.80;99.90;;;;;;5072647;28;20158;-46
2023/08/22 12:34:22;;;;;;;11.20;5.00;;;28.20;99.90;;;;;;5072540;28;20694;-46
2023/08/22 12:36:47;;;;;;;7.47;5.05;;;28.30;99.90;;;;;;5072744;28;20252;-46
2023/08/22 12:39:13;;;;;;;11.77;6.22;;;28.20;99.90;;;;;;5072503;28;20257;-46